sensor_id;sensor_type;location;lat;lon;timestamp;P1;durP1;ratioP1;P2;durP2;ratioP2
64543;SDS011;50936;51.660;5.616;2024-02-15T00:02:36;14.35;;;8.50;;
64543;SDS011;50936;51.660;5.616;2024-02-15T00:05:23;14.75;;;8.88;;
64543;SDS011;50936;51.660;5.616;2024-02-15T00:08:11;17.40;;;9.57;;
64543;SDS011;50936;51.660;5.616;2024-02-15T00:10:58;18.23;;;9.25;;
64543;SDS011;50936;51.660;5.616;2024-02-15T00:13:46;15.20;;;8.63;;
64543;SDS011;50936;51.660;5.616;2024-02-15T00:16:34;18.10;;;8.80;;
64543;SDS011;50936;51.660;5.616;2024-02-15T00:19:24;17.13;;;9.07;;
64543;SDS011;50936;51.660;5.616;2024-02-15T00:22:12;18.38;;;9.35;;
64543;SDS011;50936;51.660;5.616;2024-02-15T00:24:59;18.33;;;9.50;;
64543;SDS011;50936;51.660;5.616;2024-02-15T00:27:46;16.42;;;9.05;;
64543;SDS011;50936;51.660;5.616;2024-02-15T00:30:34;21.42;;;9.52;;
64543;SDS011;50936;51.660;5.616;2024-02-15T00:33:21;19.00;;;9.40;;
64543;SDS011;50936;51.660;5.616;2024-02-15T00:36:09;20.80;;;9.82;;
64543;SDS011;50936;51.660;5.616;2024-02-15T00:38:57;23.73;;;9.30;;
64543;SDS011;50936;51.660;5.616;2024-02-15T00:41:45;17.67;;;8.82;;
64543;SDS011;50936;51.660;5.616;2024-02-15T00:44:33;20.17;;;9.63;;
64543;SDS011;50936;51.660;5.616;2024-02-15T00:47:20;18.27;;;8.90;;
64543;SDS011;50936;51.660;5.616;2024-02-15T00:50:08;16.98;;;8.82;;
64543;SDS011;50936;51.660;5.616;2024-02-15T00:52:56;18.10;;;8.60;;
64543;SDS011;50936;51.660;5.616;2024-02-15T00:55:43;16.90;;;7.80;;
64543;SDS011;50936;51.660;5.616;2024-02-15T00:58:31;13.95;;;7.32;;
64543;SDS011;50936;51.660;5.616;2024-02-15T01:01:18;19.35;;;8.23;;
64543;SDS011;50936;51.660;5.616;2024-02-15T01:04:05;16.63;;;8.65;;
64543;SDS011;50936;51.660;5.616;2024-02-15T01:06:53;18.05;;;9.00;;
64543;SDS011;50936;51.660;5.616;2024-02-15T01:09:40;20.00;;;8.75;;
64543;SDS011;50936;51.660;5.616;2024-02-15T01:12:27;18.58;;;8.88;;
64543;SDS011;50936;51.660;5.616;2024-02-15T01:15:14;18.27;;;8.07;;
64543;SDS011;50936;51.660;5.616;2024-02-15T01:18:05;13.60;;;7.93;;
64543;SDS011;50936;51.660;5.616;2024-02-15T01:20:52;15.65;;;7.97;;
64543;SDS011;50936;51.660;5.616;2024-02-15T01:23:39;19.58;;;8.57;;
64543;SDS011;50936;51.660;5.616;2024-02-15T01:26:27;19.30;;;8.02;;
64543;SDS011;50936;51.660;5.616;2024-02-15T01:29:14;16.85;;;7.55;;
64543;SDS011;50936;51.660;5.616;2024-02-15T01:32:01;15.43;;;7.47;;
64543;SDS011;50936;51.660;5.616;2024-02-15T01:34:49;16.52;;;7.05;;
64543;SDS011;50936;51.660;5.616;2024-02-15T01:37:38;17.52;;;7.07;;
64543;SDS011;50936;51.660;5.616;2024-02-15T01:40:25;15.65;;;6.80;;
64543;SDS011;50936;51.660;5.616;2024-02-15T01:43:12;17.13;;;8.07;;
64543;SDS011;50936;51.660;5.616;2024-02-15T01:45:59;15.68;;;7.10;;
64543;SDS011;50936;51.660;5.616;2024-02-15T01:48:50;13.20;;;7.00;;
64543;SDS011;50936;51.660;5.616;2024-02-15T01:51:38;15.27;;;7.43;;
64543;SDS011;50936;51.660;5.616;2024-02-15T01:54:30;15.95;;;7.20;;
64543;SDS011;50936;51.660;5.616;2024-02-15T01:57:19;16.08;;;6.22;;
64543;SDS011;50936;51.660;5.616;2024-02-15T02:00:07;12.50;;;6.53;;
64543;SDS011;50936;51.660;5.616;2024-02-15T02:02:56;15.43;;;6.45;;
64543;SDS011;50936;51.660;5.616;2024-02-15T02:05:49;16.48;;;6.63;;
64543;SDS011;50936;51.660;5.616;2024-02-15T02:08:36;13.65;;;6.70;;
64543;SDS011;50936;51.660;5.616;2024-02-15T02:11:24;17.88;;;6.80;;
64543;SDS011;50936;51.660;5.616;2024-02-15T02:14:12;14.77;;;6.55;;
64543;SDS011;50936;51.660;5.616;2024-02-15T02:17:15;17.08;;;7.13;;
64543;SDS011;50936;51.660;5.616;2024-02-15T02:20:03;14.40;;;6.85;;
64543;SDS011;50936;51.660;5.616;2024-02-15T02:22:58;13.98;;;6.25;;
64543;SDS011;50936;51.660;5.616;2024-02-15T02:26:05;16.17;;;5.95;;
64543;SDS011;50936;51.660;5.616;2024-02-15T02:28:52;14.02;;;6.55;;
64543;SDS011;50936;51.660;5.616;2024-02-15T02:31:42;15.63;;;6.20;;
64543;SDS011;50936;51.660;5.616;2024-02-15T02:34:29;17.55;;;6.22;;
64543;SDS011;50936;51.660;5.616;2024-02-15T02:37:17;15.45;;;6.68;;
64543;SDS011;50936;51.660;5.616;2024-02-15T02:40:05;15.88;;;6.25;;
64543;SDS011;50936;51.660;5.616;2024-02-15T02:42:56;17.30;;;6.20;;
64543;SDS011;50936;51.660;5.616;2024-02-15T02:45:46;15.40;;;6.03;;
64543;SDS011;50936;51.660;5.616;2024-02-15T02:48:33;16.83;;;5.78;;
64543;SDS011;50936;51.660;5.616;2024-02-15T02:51:20;15.38;;;6.03;;
64543;SDS011;50936;51.660;5.616;2024-02-15T02:54:08;18.08;;;5.93;;
64543;SDS011;50936;51.660;5.616;2024-02-15T02:56:55;18.60;;;5.50;;
64543;SDS011;50936;51.660;5.616;2024-02-15T02:59:43;12.90;;;5.40;;
64543;SDS011;50936;51.660;5.616;2024-02-15T03:08:12;12.13;;;4.88;;
64543;SDS011;50936;51.660;5.616;2024-02-15T03:11:01;11.00;;;4.95;;
64543;SDS011;50936;51.660;5.616;2024-02-15T03:13:49;11.52;;;5.00;;
64543;SDS011;50936;51.660;5.616;2024-02-15T03:16:36;15.10;;;5.15;;
64543;SDS011;50936;51.660;5.616;2024-02-15T03:19:24;12.23;;;5.15;;
64543;SDS011;50936;51.660;5.616;2024-02-15T03:22:13;13.73;;;4.93;;
64543;SDS011;50936;51.660;5.616;2024-02-15T03:25:00;10.10;;;5.13;;
64543;SDS011;50936;51.660;5.616;2024-02-15T03:27:47;16.40;;;4.50;;
64543;SDS011;50936;51.660;5.616;2024-02-15T03:30:35;14.40;;;4.80;;
64543;SDS011;50936;51.660;5.616;2024-02-15T03:33:22;12.15;;;4.18;;
64543;SDS011;50936;51.660;5.616;2024-02-15T03:36:13;16.05;;;4.82;;
64543;SDS011;50936;51.660;5.616;2024-02-15T03:39:02;13.88;;;4.97;;
64543;SDS011;50936;51.660;5.616;2024-02-15T03:41:53;11.52;;;4.13;;
64543;SDS011;50936;51.660;5.616;2024-02-15T03:44:42;12.02;;;4.63;;
64543;SDS011;50936;51.660;5.616;2024-02-15T03:47:29;12.73;;;4.90;;
64543;SDS011;50936;51.660;5.616;2024-02-15T03:50:16;13.02;;;4.68;;
64543;SDS011;50936;51.660;5.616;2024-02-15T03:53:05;14.60;;;4.32;;
64543;SDS011;50936;51.660;5.616;2024-02-15T03:55:55;14.27;;;4.63;;
64543;SDS011;50936;51.660;5.616;2024-02-15T03:58:42;13.23;;;4.95;;
64543;SDS011;50936;51.660;5.616;2024-02-15T04:01:30;14.18;;;4.88;;
64543;SDS011;50936;51.660;5.616;2024-02-15T04:04:21;12.23;;;3.92;;
64543;SDS011;50936;51.660;5.616;2024-02-15T04:07:09;12.90;;;4.57;;
64543;SDS011;50936;51.660;5.616;2024-02-15T04:09:58;11.68;;;4.25;;
64543;SDS011;50936;51.660;5.616;2024-02-15T04:12:47;13.52;;;4.15;;
64543;SDS011;50936;51.660;5.616;2024-02-15T04:15:35;12.35;;;4.45;;
64543;SDS011;50936;51.660;5.616;2024-02-15T04:18:22;11.73;;;4.60;;
64543;SDS011;50936;51.660;5.616;2024-02-15T04:21:09;14.13;;;4.18;;
64543;SDS011;50936;51.660;5.616;2024-02-15T04:23:57;11.95;;;4.63;;
64543;SDS011;50936;51.660;5.616;2024-02-15T04:26:44;9.60;;;3.15;;
64543;SDS011;50936;51.660;5.616;2024-02-15T04:29:34;13.60;;;3.97;;
64543;SDS011;50936;51.660;5.616;2024-02-15T04:32:26;12.70;;;3.78;;
64543;SDS011;50936;51.660;5.616;2024-02-15T04:35:15;12.13;;;4.38;;
64543;SDS011;50936;51.660;5.616;2024-02-15T04:38:03;9.57;;;4.13;;
64543;SDS011;50936;51.660;5.616;2024-02-15T04:40:50;13.13;;;4.30;;
64543;SDS011;50936;51.660;5.616;2024-02-15T04:43:37;12.48;;;4.32;;
64543;SDS011;50936;51.660;5.616;2024-02-15T04:46:27;12.02;;;4.53;;
64543;SDS011;50936;51.660;5.616;2024-02-15T04:49:15;11.75;;;4.15;;
64543;SDS011;50936;51.660;5.616;2024-02-15T04:52:03;10.57;;;3.60;;
64543;SDS011;50936;51.660;5.616;2024-02-15T04:54:52;8.93;;;3.72;;
64543;SDS011;50936;51.660;5.616;2024-02-15T04:57:41;15.07;;;4.07;;
64543;SDS011;50936;51.660;5.616;2024-02-15T05:00:28;9.98;;;3.53;;
64543;SDS011;50936;51.660;5.616;2024-02-15T05:03:15;10.02;;;3.83;;
64543;SDS011;50936;51.660;5.616;2024-02-15T05:06:04;10.98;;;3.78;;
64543;SDS011;50936;51.660;5.616;2024-02-15T05:08:53;9.82;;;3.78;;
64543;SDS011;50936;51.660;5.616;2024-02-15T05:11:41;11.00;;;4.03;;
64543;SDS011;50936;51.660;5.616;2024-02-15T05:14:33;13.15;;;3.88;;
64543;SDS011;50936;51.660;5.616;2024-02-15T05:17:26;8.18;;;3.70;;
64543;SDS011;50936;51.660;5.616;2024-02-15T05:20:18;7.50;;;3.30;;
64543;SDS011;50936;51.660;5.616;2024-02-15T05:23:07;11.10;;;3.97;;
64543;SDS011;50936;51.660;5.616;2024-02-15T05:25:54;14.65;;;3.38;;
64543;SDS011;50936;51.660;5.616;2024-02-15T05:28:43;9.55;;;3.30;;
64543;SDS011;50936;51.660;5.616;2024-02-15T05:31:30;6.55;;;3.45;;
64543;SDS011;50936;51.660;5.616;2024-02-15T05:34:17;6.53;;;3.25;;
64543;SDS011;50936;51.660;5.616;2024-02-15T05:37:05;8.32;;;3.33;;
64543;SDS011;50936;51.660;5.616;2024-02-15T05:39:53;13.18;;;3.15;;
64543;SDS011;50936;51.660;5.616;2024-02-15T05:42:42;8.55;;;3.13;;
64543;SDS011;50936;51.660;5.616;2024-02-15T05:45:32;11.60;;;3.25;;
64543;SDS011;50936;51.660;5.616;2024-02-15T05:48:21;8.30;;;3.58;;
64543;SDS011;50936;51.660;5.616;2024-02-15T05:51:08;6.55;;;2.92;;
64543;SDS011;50936;51.660;5.616;2024-02-15T05:53:56;9.45;;;3.15;;
64543;SDS011;50936;51.660;5.616;2024-02-15T05:56:46;10.23;;;4.28;;
64543;SDS011;50936;51.660;5.616;2024-02-15T05:59:38;11.18;;;3.53;;
64543;SDS011;50936;51.660;5.616;2024-02-15T06:02:27;8.88;;;2.80;;
64543;SDS011;50936;51.660;5.616;2024-02-15T06:05:14;11.32;;;3.35;;
64543;SDS011;50936;51.660;5.616;2024-02-15T06:08:04;6.60;;;3.15;;
64543;SDS011;50936;51.660;5.616;2024-02-15T06:10:52;6.72;;;2.70;;
64543;SDS011;50936;51.660;5.616;2024-02-15T06:13:40;9.05;;;3.38;;
64543;SDS011;50936;51.660;5.616;2024-02-15T06:16:28;9.35;;;3.35;;
64543;SDS011;50936;51.660;5.616;2024-02-15T06:19:15;8.55;;;3.45;;
64543;SDS011;50936;51.660;5.616;2024-02-15T06:22:03;12.10;;;3.55;;
64543;SDS011;50936;51.660;5.616;2024-02-15T06:24:51;13.10;;;3.25;;
64543;SDS011;50936;51.660;5.616;2024-02-15T06:27:38;9.48;;;3.83;;
64543;SDS011;50936;51.660;5.616;2024-02-15T06:30:30;8.40;;;3.42;;
64543;SDS011;50936;51.660;5.616;2024-02-15T06:33:37;9.75;;;2.70;;
64543;SDS011;50936;51.660;5.616;2024-02-15T06:36:45;15.55;;;3.50;;
64543;SDS011;50936;51.660;5.616;2024-02-15T06:39:53;7.82;;;2.75;;
64543;SDS011;50936;51.660;5.616;2024-02-15T06:42:40;8.55;;;2.95;;
64543;SDS011;50936;51.660;5.616;2024-02-15T06:45:28;8.32;;;3.30;;
64543;SDS011;50936;51.660;5.616;2024-02-15T06:48:18;6.93;;;2.63;;
64543;SDS011;50936;51.660;5.616;2024-02-15T06:51:05;8.98;;;3.15;;
64543;SDS011;50936;51.660;5.616;2024-02-15T06:53:55;7.05;;;2.85;;
64543;SDS011;50936;51.660;5.616;2024-02-15T06:56:43;6.55;;;2.78;;
64543;SDS011;50936;51.660;5.616;2024-02-15T06:59:34;5.28;;;2.63;;
64543;SDS011;50936;51.660;5.616;2024-02-15T07:02:21;13.48;;;4.10;;
64543;SDS011;50936;51.660;5.616;2024-02-15T07:05:09;9.93;;;3.35;;
64543;SDS011;50936;51.660;5.616;2024-02-15T07:07:57;11.77;;;3.78;;
64543;SDS011;50936;51.660;5.616;2024-02-15T07:10:44;10.60;;;3.50;;
64543;SDS011;50936;51.660;5.616;2024-02-15T07:13:31;10.20;;;4.40;;
64543;SDS011;50936;51.660;5.616;2024-02-15T07:16:18;11.20;;;3.67;;
64543;SDS011;50936;51.660;5.616;2024-02-15T07:19:06;8.02;;;3.50;;
64543;SDS011;50936;51.660;5.616;2024-02-15T07:21:56;7.93;;;3.45;;
64543;SDS011;50936;51.660;5.616;2024-02-15T07:24:44;6.38;;;3.28;;
64543;SDS011;50936;51.660;5.616;2024-02-15T07:27:31;10.68;;;4.20;;
64543;SDS011;50936;51.660;5.616;2024-02-15T07:30:21;8.65;;;3.28;;
64543;SDS011;50936;51.660;5.616;2024-02-15T07:33:12;9.50;;;3.72;;
64543;SDS011;50936;51.660;5.616;2024-02-15T07:36:01;10.10;;;4.78;;
64543;SDS011;50936;51.660;5.616;2024-02-15T07:38:52;10.10;;;3.55;;
64543;SDS011;50936;51.660;5.616;2024-02-15T07:41:40;8.55;;;2.85;;
64543;SDS011;50936;51.660;5.616;2024-02-15T07:44:28;9.30;;;3.17;;
64543;SDS011;50936;51.660;5.616;2024-02-15T07:47:17;6.03;;;3.05;;
64543;SDS011;50936;51.660;5.616;2024-02-15T07:50:07;11.75;;;3.80;;
64543;SDS011;50936;51.660;5.616;2024-02-15T07:52:56;7.88;;;4.32;;
64543;SDS011;50936;51.660;5.616;2024-02-15T07:55:43;9.05;;;3.42;;
64543;SDS011;50936;51.660;5.616;2024-02-15T07:58:31;8.18;;;3.22;;
64543;SDS011;50936;51.660;5.616;2024-02-15T08:01:18;9.70;;;3.78;;
64543;SDS011;50936;51.660;5.616;2024-02-15T08:04:11;8.15;;;3.03;;
64543;SDS011;50936;51.660;5.616;2024-02-15T08:07:01;6.88;;;2.85;;
64543;SDS011;50936;51.660;5.616;2024-02-15T08:09:49;8.40;;;3.45;;
64543;SDS011;50936;51.660;5.616;2024-02-15T08:12:39;7.03;;;3.10;;
64543;SDS011;50936;51.660;5.616;2024-02-15T08:15:30;8.57;;;2.92;;
64543;SDS011;50936;51.660;5.616;2024-02-15T08:18:17;8.18;;;3.38;;
64543;SDS011;50936;51.660;5.616;2024-02-15T08:21:05;8.38;;;3.00;;
64543;SDS011;50936;51.660;5.616;2024-02-15T08:23:52;12.15;;;3.10;;
64543;SDS011;50936;51.660;5.616;2024-02-15T08:26:39;9.63;;;3.42;;
64543;SDS011;50936;51.660;5.616;2024-02-15T08:29:28;7.97;;;3.38;;
64543;SDS011;50936;51.660;5.616;2024-02-15T08:32:16;7.95;;;2.70;;
64543;SDS011;50936;51.660;5.616;2024-02-15T08:35:03;5.53;;;2.50;;
64543;SDS011;50936;51.660;5.616;2024-02-15T08:37:52;9.88;;;2.88;;
64543;SDS011;50936;51.660;5.616;2024-02-15T08:40:40;9.32;;;2.90;;
64543;SDS011;50936;51.660;5.616;2024-02-15T08:43:27;6.78;;;3.05;;
64543;SDS011;50936;51.660;5.616;2024-02-15T08:46:14;7.55;;;2.83;;
64543;SDS011;50936;51.660;5.616;2024-02-15T08:49:01;7.30;;;3.35;;
64543;SDS011;50936;51.660;5.616;2024-02-15T08:51:50;7.43;;;2.92;;
64543;SDS011;50936;51.660;5.616;2024-02-15T08:54:37;11.80;;;3.28;;
64543;SDS011;50936;51.660;5.616;2024-02-15T08:57:28;7.25;;;2.53;;
64543;SDS011;50936;51.660;5.616;2024-02-15T09:00:15;7.05;;;2.70;;
64543;SDS011;50936;51.660;5.616;2024-02-15T09:03:04;8.73;;;2.65;;
64543;SDS011;50936;51.660;5.616;2024-02-15T09:05:54;8.68;;;2.67;;
64543;SDS011;50936;51.660;5.616;2024-02-15T09:08:41;6.82;;;2.65;;
64543;SDS011;50936;51.660;5.616;2024-02-15T09:11:29;8.18;;;2.42;;
64543;SDS011;50936;51.660;5.616;2024-02-15T09:14:17;10.25;;;2.33;;
64543;SDS011;50936;51.660;5.616;2024-02-15T09:17:04;8.07;;;2.58;;
64543;SDS011;50936;51.660;5.616;2024-02-15T09:19:55;7.30;;;2.53;;
64543;SDS011;50936;51.660;5.616;2024-02-15T09:22:51;6.50;;;2.38;;
64543;SDS011;50936;51.660;5.616;2024-02-15T09:25:41;6.35;;;2.53;;
64543;SDS011;50936;51.660;5.616;2024-02-15T09:28:31;9.25;;;2.22;;
64543;SDS011;50936;51.660;5.616;2024-02-15T09:31:19;5.22;;;2.83;;
64543;SDS011;50936;51.660;5.616;2024-02-15T09:34:06;8.55;;;2.92;;
64543;SDS011;50936;51.660;5.616;2024-02-15T09:36:54;6.72;;;2.60;;
64543;SDS011;50936;51.660;5.616;2024-02-15T09:39:43;6.15;;;2.42;;
64543;SDS011;50936;51.660;5.616;2024-02-15T09:42:31;8.98;;;2.72;;
64543;SDS011;50936;51.660;5.616;2024-02-15T09:45:21;9.52;;;2.78;;
64543;SDS011;50936;51.660;5.616;2024-02-15T09:48:11;6.47;;;2.85;;
64543;SDS011;50936;51.660;5.616;2024-02-15T09:51:04;7.47;;;2.40;;
64543;SDS011;50936;51.660;5.616;2024-02-15T09:53:55;7.25;;;2.42;;
64543;SDS011;50936;51.660;5.616;2024-02-15T09:56:45;8.25;;;2.53;;
64543;SDS011;50936;51.660;5.616;2024-02-15T09:59:33;8.20;;;2.67;;
64543;SDS011;50936;51.660;5.616;2024-02-15T10:02:23;8.15;;;2.63;;
64543;SDS011;50936;51.660;5.616;2024-02-15T10:05:12;12.02;;;2.90;;
64543;SDS011;50936;51.660;5.616;2024-02-15T10:08:00;13.32;;;3.25;;
64543;SDS011;50936;51.660;5.616;2024-02-15T10:10:48;7.28;;;2.80;;
64543;SDS011;50936;51.660;5.616;2024-02-15T10:14:08;7.88;;;2.70;;
64543;SDS011;50936;51.660;5.616;2024-02-15T10:16:58;9.23;;;2.47;;
64543;SDS011;50936;51.660;5.616;2024-02-15T10:20:04;7.40;;;2.65;;
64543;SDS011;50936;51.660;5.616;2024-02-15T10:22:53;8.60;;;2.55;;
64543;SDS011;50936;51.660;5.616;2024-02-15T10:25:56;7.75;;;2.70;;
64543;SDS011;50936;51.660;5.616;2024-02-15T10:28:45;7.47;;;2.67;;
64543;SDS011;50936;51.660;5.616;2024-02-15T10:31:32;5.25;;;2.22;;
64543;SDS011;50936;51.660;5.616;2024-02-15T10:34:19;6.13;;;2.40;;
64543;SDS011;50936;51.660;5.616;2024-02-15T10:37:14;5.72;;;2.60;;
64543;SDS011;50936;51.660;5.616;2024-02-15T10:40:07;6.63;;;2.13;;
64543;SDS011;50936;51.660;5.616;2024-02-15T10:42:55;7.43;;;2.90;;
64543;SDS011;50936;51.660;5.616;2024-02-15T10:45:47;8.00;;;2.30;;
64543;SDS011;50936;51.660;5.616;2024-02-15T10:48:36;6.18;;;2.40;;
64543;SDS011;50936;51.660;5.616;2024-02-15T10:51:25;5.03;;;2.20;;
64543;SDS011;50936;51.660;5.616;2024-02-15T10:54:15;5.75;;;2.20;;
64543;SDS011;50936;51.660;5.616;2024-02-15T10:57:22;6.47;;;2.35;;
64543;SDS011;50936;51.660;5.616;2024-02-15T11:00:15;7.18;;;2.22;;
64543;SDS011;50936;51.660;5.616;2024-02-15T11:03:08;7.63;;;2.50;;
64543;SDS011;50936;51.660;5.616;2024-02-15T11:06:03;5.47;;;2.63;;
64543;SDS011;50936;51.660;5.616;2024-02-15T11:08:54;6.78;;;2.33;;
64543;SDS011;50936;51.660;5.616;2024-02-15T11:11:43;5.15;;;2.38;;
64543;SDS011;50936;51.660;5.616;2024-02-15T11:14:36;5.63;;;2.55;;
64543;SDS011;50936;51.660;5.616;2024-02-15T11:23:23;4.38;;;2.20;;
64543;SDS011;50936;51.660;5.616;2024-02-15T11:29:52;4.93;;;2.00;;
64543;SDS011;50936;51.660;5.616;2024-02-15T11:32:45;4.97;;;2.17;;
64543;SDS011;50936;51.660;5.616;2024-02-15T11:35:39;6.95;;;2.28;;
64543;SDS011;50936;51.660;5.616;2024-02-15T11:38:57;6.25;;;2.20;;
64543;SDS011;50936;51.660;5.616;2024-02-15T11:41:44;5.13;;;2.20;;
64543;SDS011;50936;51.660;5.616;2024-02-15T11:45:18;7.05;;;2.65;;
64543;SDS011;50936;51.660;5.616;2024-02-15T11:48:09;4.47;;;1.95;;
64543;SDS011;50936;51.660;5.616;2024-02-15T11:51:00;6.25;;;2.17;;
64543;SDS011;50936;51.660;5.616;2024-02-15T11:53:57;7.75;;;2.22;;
64543;SDS011;50936;51.660;5.616;2024-02-15T11:56:56;3.78;;;2.00;;
64543;SDS011;50936;51.660;5.616;2024-02-15T12:00:00;6.82;;;2.15;;
64543;SDS011;50936;51.660;5.616;2024-02-15T12:03:20;6.28;;;2.60;;
64543;SDS011;50936;51.660;5.616;2024-02-15T12:06:42;6.68;;;2.60;;
64543;SDS011;50936;51.660;5.616;2024-02-15T12:09:48;5.97;;;2.28;;
64543;SDS011;50936;51.660;5.616;2024-02-15T12:12:54;4.38;;;2.17;;
64543;SDS011;50936;51.660;5.616;2024-02-15T12:16:01;6.25;;;2.13;;
64543;SDS011;50936;51.660;5.616;2024-02-15T12:19:07;5.72;;;1.88;;
64543;SDS011;50936;51.660;5.616;2024-02-15T12:21:57;3.60;;;1.77;;
64543;SDS011;50936;51.660;5.616;2024-02-15T12:27:52;9.73;;;2.08;;
64543;SDS011;50936;51.660;5.616;2024-02-15T12:30:41;7.10;;;2.80;;
64543;SDS011;50936;51.660;5.616;2024-02-15T12:33:28;4.20;;;2.20;;
64543;SDS011;50936;51.660;5.616;2024-02-15T12:36:16;7.70;;;2.60;;
64543;SDS011;50936;51.660;5.616;2024-02-15T12:39:06;5.53;;;2.00;;
64543;SDS011;50936;51.660;5.616;2024-02-15T12:41:57;7.53;;;1.90;;
64543;SDS011;50936;51.660;5.616;2024-02-15T12:44:46;5.40;;;1.95;;
64543;SDS011;50936;51.660;5.616;2024-02-15T12:47:34;4.55;;;1.77;;
64543;SDS011;50936;51.660;5.616;2024-02-15T12:50:22;4.72;;;2.03;;
64543;SDS011;50936;51.660;5.616;2024-02-15T12:53:20;6.20;;;1.90;;
64543;SDS011;50936;51.660;5.616;2024-02-15T12:56:09;7.00;;;2.47;;
64543;SDS011;50936;51.660;5.616;2024-02-15T12:58:56;5.63;;;2.13;;
64543;SDS011;50936;51.660;5.616;2024-02-15T13:01:43;6.00;;;1.85;;
64543;SDS011;50936;51.660;5.616;2024-02-15T13:04:33;5.78;;;2.05;;
64543;SDS011;50936;51.660;5.616;2024-02-15T13:07:20;5.75;;;2.10;;
64543;SDS011;50936;51.660;5.616;2024-02-15T13:10:08;4.38;;;1.75;;
64543;SDS011;50936;51.660;5.616;2024-02-15T13:12:56;6.35;;;1.80;;
64543;SDS011;50936;51.660;5.616;2024-02-15T13:15:43;5.25;;;1.73;;
64543;SDS011;50936;51.660;5.616;2024-02-15T13:18:30;9.10;;;2.13;;
64543;SDS011;50936;51.660;5.616;2024-02-15T13:21:18;3.83;;;1.77;;
64543;SDS011;50936;51.660;5.616;2024-02-15T13:24:05;3.88;;;1.98;;
64543;SDS011;50936;51.660;5.616;2024-02-15T13:26:53;7.43;;;1.88;;
64543;SDS011;50936;51.660;5.616;2024-02-15T13:29:44;5.43;;;1.92;;
64543;SDS011;50936;51.660;5.616;2024-02-15T13:32:32;5.65;;;1.95;;
64543;SDS011;50936;51.660;5.616;2024-02-15T13:35:19;6.32;;;2.20;;
64543;SDS011;50936;51.660;5.616;2024-02-15T13:41:02;4.75;;;1.83;;
64543;SDS011;50936;51.660;5.616;2024-02-15T13:43:50;3.05;;;1.52;;
64543;SDS011;50936;51.660;5.616;2024-02-15T13:46:38;5.20;;;1.90;;
64543;SDS011;50936;51.660;5.616;2024-02-15T13:49:25;4.90;;;1.90;;
64543;SDS011;50936;51.660;5.616;2024-02-15T13:52:18;7.15;;;1.65;;
64543;SDS011;50936;51.660;5.616;2024-02-15T13:55:06;4.07;;;1.58;;
64543;SDS011;50936;51.660;5.616;2024-02-15T13:57:55;4.45;;;1.58;;
64543;SDS011;50936;51.660;5.616;2024-02-15T14:00:47;4.82;;;1.83;;
64543;SDS011;50936;51.660;5.616;2024-02-15T14:03:36;5.00;;;2.10;;
64543;SDS011;50936;51.660;5.616;2024-02-15T14:06:23;4.63;;;2.00;;
64543;SDS011;50936;51.660;5.616;2024-02-15T14:09:11;3.45;;;1.45;;
64543;SDS011;50936;51.660;5.616;2024-02-15T14:11:59;6.75;;;1.40;;
64543;SDS011;50936;51.660;5.616;2024-02-15T14:14:48;5.13;;;1.80;;
64543;SDS011;50936;51.660;5.616;2024-02-15T14:17:36;4.20;;;1.90;;
64543;SDS011;50936;51.660;5.616;2024-02-15T14:20:23;8.18;;;1.80;;
64543;SDS011;50936;51.660;5.616;2024-02-15T14:23:11;6.43;;;2.03;;
64543;SDS011;50936;51.660;5.616;2024-02-15T14:28:49;5.95;;;1.83;;
64543;SDS011;50936;51.660;5.616;2024-02-15T14:31:36;4.78;;;1.52;;
64543;SDS011;50936;51.660;5.616;2024-02-15T14:34:42;3.13;;;1.50;;
64543;SDS011;50936;51.660;5.616;2024-02-15T14:37:29;5.55;;;1.95;;
64543;SDS011;50936;51.660;5.616;2024-02-15T14:40:16;8.27;;;2.03;;
64543;SDS011;50936;51.660;5.616;2024-02-15T14:43:12;5.45;;;1.90;;
64543;SDS011;50936;51.660;5.616;2024-02-15T14:46:05;4.50;;;1.92;;
64543;SDS011;50936;51.660;5.616;2024-02-15T14:49:01;7.57;;;2.58;;
64543;SDS011;50936;51.660;5.616;2024-02-15T14:51:51;5.97;;;2.90;;
64543;SDS011;50936;51.660;5.616;2024-02-15T14:54:39;7.45;;;3.25;;
64543;SDS011;50936;51.660;5.616;2024-02-15T14:57:26;8.57;;;2.50;;
64543;SDS011;50936;51.660;5.616;2024-02-15T15:00:14;4.70;;;1.63;;
64543;SDS011;50936;51.660;5.616;2024-02-15T15:03:06;3.75;;;2.10;;
64543;SDS011;50936;51.660;5.616;2024-02-15T15:05:53;4.45;;;2.13;;
64543;SDS011;50936;51.660;5.616;2024-02-15T15:08:59;10.90;;;2.45;;
64543;SDS011;50936;51.660;5.616;2024-02-15T15:12:05;5.20;;;1.83;;
64543;SDS011;50936;51.660;5.616;2024-02-15T15:15:11;3.78;;;1.70;;
64543;SDS011;50936;51.660;5.616;2024-02-15T15:18:01;4.10;;;1.67;;
64543;SDS011;50936;51.660;5.616;2024-02-15T15:20:51;7.18;;;2.03;;
64543;SDS011;50936;51.660;5.616;2024-02-15T15:23:38;7.07;;;1.52;;
64543;SDS011;50936;51.660;5.616;2024-02-15T15:26:26;5.95;;;1.52;;
64543;SDS011;50936;51.660;5.616;2024-02-15T15:29:13;5.70;;;1.92;;
64543;SDS011;50936;51.660;5.616;2024-02-15T15:32:01;3.50;;;1.63;;
64543;SDS011;50936;51.660;5.616;2024-02-15T15:34:49;6.95;;;2.83;;
64543;SDS011;50936;51.660;5.616;2024-02-15T15:37:36;8.32;;;3.45;;
64543;SDS011;50936;51.660;5.616;2024-02-15T15:40:25;8.35;;;2.95;;
64543;SDS011;50936;51.660;5.616;2024-02-15T15:43:13;5.88;;;2.28;;
64543;SDS011;50936;51.660;5.616;2024-02-15T15:46:00;4.78;;;2.00;;
64543;SDS011;50936;51.660;5.616;2024-02-15T15:48:48;6.07;;;2.38;;
64543;SDS011;50936;51.660;5.616;2024-02-15T15:51:35;9.52;;;3.35;;
64543;SDS011;50936;51.660;5.616;2024-02-15T15:54:29;7.38;;;2.30;;
64543;SDS011;50936;51.660;5.616;2024-02-15T15:57:16;6.72;;;2.47;;
64543;SDS011;50936;51.660;5.616;2024-02-15T16:00:09;10.02;;;3.83;;
64543;SDS011;50936;51.660;5.616;2024-02-15T16:03:03;7.65;;;3.10;;
64543;SDS011;50936;51.660;5.616;2024-02-15T16:05:55;9.57;;;3.70;;
64543;SDS011;50936;51.660;5.616;2024-02-15T16:08:43;5.25;;;1.98;;
64543;SDS011;50936;51.660;5.616;2024-02-15T16:11:33;8.45;;;2.17;;
64543;SDS011;50936;51.660;5.616;2024-02-15T16:14:20;5.60;;;1.67;;
64543;SDS011;50936;51.660;5.616;2024-02-15T16:17:08;5.43;;;2.25;;
64543;SDS011;50936;51.660;5.616;2024-02-15T16:19:57;4.40;;;2.03;;
64543;SDS011;50936;51.660;5.616;2024-02-15T16:22:48;4.38;;;1.98;;
64543;SDS011;50936;51.660;5.616;2024-02-15T16:25:36;6.40;;;2.38;;
64543;SDS011;50936;51.660;5.616;2024-02-15T16:28:24;5.97;;;2.00;;
64543;SDS011;50936;51.660;5.616;2024-02-15T16:31:11;8.05;;;2.00;;
64543;SDS011;50936;51.660;5.616;2024-02-15T16:33:58;2.85;;;1.60;;
64543;SDS011;50936;51.660;5.616;2024-02-15T16:36:46;6.72;;;2.20;;
64543;SDS011;50936;51.660;5.616;2024-02-15T16:39:36;5.10;;;2.15;;
64543;SDS011;50936;51.660;5.616;2024-02-15T16:42:23;8.05;;;2.75;;
64543;SDS011;50936;51.660;5.616;2024-02-15T16:45:10;7.97;;;3.30;;
64543;SDS011;50936;51.660;5.616;2024-02-15T16:48:01;5.65;;;2.00;;
64543;SDS011;50936;51.660;5.616;2024-02-15T16:50:51;8.38;;;2.60;;
64543;SDS011;50936;51.660;5.616;2024-02-15T16:53:39;8.35;;;3.05;;
64543;SDS011;50936;51.660;5.616;2024-02-15T16:56:26;9.73;;;3.33;;
64543;SDS011;50936;51.660;5.616;2024-02-15T16:59:14;5.55;;;2.95;;
64543;SDS011;50936;51.660;5.616;2024-02-15T17:02:02;5.65;;;2.60;;
64543;SDS011;50936;51.660;5.616;2024-02-15T17:04:49;6.88;;;2.80;;
64543;SDS011;50936;51.660;5.616;2024-02-15T17:07:36;6.82;;;3.10;;
64543;SDS011;50936;51.660;5.616;2024-02-15T17:10:24;9.30;;;4.40;;
64543;SDS011;50936;51.660;5.616;2024-02-15T17:13:11;8.55;;;4.05;;
64543;SDS011;50936;51.660;5.616;2024-02-15T17:15:59;15.13;;;4.28;;
64543;SDS011;50936;51.660;5.616;2024-02-15T17:18:46;17.20;;;6.45;;
64543;SDS011;50936;51.660;5.616;2024-02-15T17:21:39;16.73;;;7.75;;
64543;SDS011;50936;51.660;5.616;2024-02-15T17:24:28;17.23;;;8.48;;